sensor_id;sensor_type;location;lat;lon;timestamp;pressure;altitude;pressure_sealevel;temperature;humidity
51359;BME280;37448;51.588;7.248;2022-08-03T00:00:01;100810.19;;;20.70;81.00
51359;BME280;37448;51.588;7.248;2022-08-03T00:02:31;100810.13;;;20.74;80.71
51359;BME280;37448;51.588;7.248;2022-08-03T00:05:02;100804.31;;;20.65;82.04
51359;BME280;37448;51.588;7.248;2022-08-03T00:07:32;100810.25;;;20.67;82.02
51359;BME280;37448;51.588;7.248;2022-08-03T00:10:03;100805.69;;;20.57;83.36
51359;BME280;37448;51.588;7.248;2022-08-03T00:12:33;100801.69;;;20.58;82.63
51359;BME280;37448;51.588;7.248;2022-08-03T00:15:05;100798.50;;;20.56;81.95
51359;BME280;37448;51.588;7.248;2022-08-03T00:17:36;100800.81;;;20.61;81.76
51359;BME280;37448;51.588;7.248;2022-08-03T00:20:07;100801.47;;;20.48;83.60
51359;BME280;37448;51.588;7.248;2022-08-03T00:22:38;100797.94;;;20.44;83.19
51359;BME280;37448;51.588;7.248;2022-08-03T00:25:08;100794.69;;;20.46;83.09
51359;BME280;37448;51.588;7.248;2022-08-03T00:27:38;100794.44;;;20.40;83.41
51359;BME280;37448;51.588;7.248;2022-08-03T00:30:09;100782.81;;;20.42;82.77
51359;BME280;37448;51.588;7.248;2022-08-03T00:32:39;100787.28;;;20.39;83.15
51359;BME280;37448;51.588;7.248;2022-08-03T00:35:10;100787.75;;;20.34;84.71
51359;BME280;37448;51.588;7.248;2022-08-03T00:37:41;100791.75;;;20.33;84.39
51359;BME280;37448;51.588;7.248;2022-08-03T00:40:13;100785.47;;;20.29;85.03
51359;BME280;37448;51.588;7.248;2022-08-03T00:42:55;100781.91;;;20.25;85.45
51359;BME280;37448;51.588;7.248;2022-08-03T00:45:32;100783.91;;;20.25;85.47
51359;BME280;37448;51.588;7.248;2022-08-03T00:48:04;100781.56;;;20.23;85.18
51359;BME280;37448;51.588;7.248;2022-08-03T00:50:38;100785.91;;;20.24;84.34
51359;BME280;37448;51.588;7.248;2022-08-03T00:53:10;100780.06;;;20.19;84.61
51359;BME280;37448;51.588;7.248;2022-08-03T00:55:43;100771.38;;;20.13;85.68
51359;BME280;37448;51.588;7.248;2022-08-03T00:58:14;100782.53;;;20.13;85.17
51359;BME280;37448;51.588;7.248;2022-08-03T01:00:44;100780.16;;;20.12;85.51
51359;BME280;37448;51.588;7.248;2022-08-03T01:03:15;100781.41;;;20.11;85.10
51359;BME280;37448;51.588;7.248;2022-08-03T01:06:06;100777.09;;;20.06;86.48
51359;BME280;37448;51.588;7.248;2022-08-03T01:09:01;100770.66;;;20.09;86.46
51359;BME280;37448;51.588;7.248;2022-08-03T01:11:53;100773.94;;;20.04;86.80
51359;BME280;37448;51.588;7.248;2022-08-03T01:14:32;100775.59;;;20.01;87.56
51359;BME280;37448;51.588;7.248;2022-08-03T01:17:13;100768.00;;;20.02;86.07
51359;BME280;37448;51.588;7.248;2022-08-03T01:19:59;100771.59;;;20.02;86.70
51359;BME280;37448;51.588;7.248;2022-08-03T01:32:07;100769.84;;;19.89;86.38
51359;BME280;37448;51.588;7.248;2022-08-03T01:34:44;100768.72;;;19.83;88.00
51359;BME280;37448;51.588;7.248;2022-08-03T01:37:21;100763.22;;;19.79;87.47
51359;BME280;37448;51.588;7.248;2022-08-03T01:39:56;100767.22;;;19.78;88.28
51359;BME280;37448;51.588;7.248;2022-08-03T01:42:28;100767.28;;;19.75;88.21
51359;BME280;37448;51.588;7.248;2022-08-03T01:45:00;100765.03;;;19.66;89.53
51359;BME280;37448;51.588;7.248;2022-08-03T01:47:32;100763.44;;;19.65;89.12
51359;BME280;37448;51.588;7.248;2022-08-03T01:50:04;100759.44;;;19.66;89.98
51359;BME280;37448;51.588;7.248;2022-08-03T01:52:38;100762.69;;;19.65;89.81
51359;BME280;37448;51.588;7.248;2022-08-03T01:55:11;100756.34;;;19.60;89.24
51359;BME280;37448;51.588;7.248;2022-08-03T01:57:43;100762.31;;;19.63;89.25
51359;BME280;37448;51.588;7.248;2022-08-03T02:00:14;100758.31;;;19.64;89.07
51359;BME280;37448;51.588;7.248;2022-08-03T02:02:48;100758.41;;;19.56;90.37
51359;BME280;37448;51.588;7.248;2022-08-03T02:05:19;100759.25;;;19.53;90.98
51359;BME280;37448;51.588;7.248;2022-08-03T02:07:50;100757.69;;;19.52;89.21
51359;BME280;37448;51.588;7.248;2022-08-03T02:10:22;100760.47;;;19.52;90.18
51359;BME280;37448;51.588;7.248;2022-08-03T02:12:53;100753.34;;;19.51;88.99
51359;BME280;37448;51.588;7.248;2022-08-03T02:15:24;100760.84;;;19.54;89.59
51359;BME280;37448;51.588;7.248;2022-08-03T02:17:57;100755.41;;;19.47;90.79
51359;BME280;37448;51.588;7.248;2022-08-03T02:20:29;100759.00;;;19.44;91.77
51359;BME280;37448;51.588;7.248;2022-08-03T02:23:02;100755.03;;;19.45;89.67
51359;BME280;37448;51.588;7.248;2022-08-03T02:25:34;100766.16;;;19.45;88.96
51359;BME280;37448;51.588;7.248;2022-08-03T02:28:11;100763.03;;;19.43;89.43
51359;BME280;37448;51.588;7.248;2022-08-03T02:30:45;100766.59;;;19.40;88.60
51359;BME280;37448;51.588;7.248;2022-08-03T02:33:20;100759.09;;;19.37;90.80
51359;BME280;37448;51.588;7.248;2022-08-03T02:35:51;100759.22;;;19.30;89.56
51359;BME280;37448;51.588;7.248;2022-08-03T02:38:27;100765.59;;;19.27;89.92
51359;BME280;37448;51.588;7.248;2022-08-03T02:41:03;100763.34;;;19.18;91.06
51359;BME280;37448;51.588;7.248;2022-08-03T02:43:36;100762.66;;;19.11;92.49
51359;BME280;37448;51.588;7.248;2022-08-03T02:46:08;100766.31;;;19.08;92.21
51359;BME280;37448;51.588;7.248;2022-08-03T02:48:39;100761.19;;;19.03;92.82
51359;BME280;37448;51.588;7.248;2022-08-03T02:51:10;100757.22;;;19.04;92.17
51359;BME280;37448;51.588;7.248;2022-08-03T02:53:42;100764.38;;;19.05;90.53
51359;BME280;37448;51.588;7.248;2022-08-03T02:56:15;100762.41;;;19.02;91.48
51359;BME280;37448;51.588;7.248;2022-08-03T02:58:47;100768.41;;;19.00;91.10
51359;BME280;37448;51.588;7.248;2022-08-03T03:01:21;100763.63;;;19.01;89.87
51359;BME280;37448;51.588;7.248;2022-08-03T03:03:54;100755.03;;;18.88;93.29
51359;BME280;37448;51.588;7.248;2022-08-03T03:06:25;100759.03;;;18.87;93.89
51359;BME280;37448;51.588;7.248;2022-08-03T03:08:56;100754.25;;;18.88;93.06
51359;BME280;37448;51.588;7.248;2022-08-03T03:11:27;100760.28;;;18.83;93.46
51359;BME280;37448;51.588;7.248;2022-08-03T03:13:59;100759.09;;;18.80;93.45
51359;BME280;37448;51.588;7.248;2022-08-03T03:16:30;100752.78;;;18.80;91.26
51359;BME280;37448;51.588;7.248;2022-08-03T03:19:01;100754.38;;;18.77;93.11
51359;BME280;37448;51.588;7.248;2022-08-03T03:21:32;100762.41;;;18.71;93.97
51359;BME280;37448;51.588;7.248;2022-08-03T03:24:05;100756.94;;;18.64;93.20
51359;BME280;37448;51.588;7.248;2022-08-03T03:26:37;100765.22;;;18.68;92.96
51359;BME280;37448;51.588;7.248;2022-08-03T03:29:07;100763.28;;;18.65;93.61
51359;BME280;37448;51.588;7.248;2022-08-03T03:31:38;100768.94;;;18.58;93.26
51359;BME280;37448;51.588;7.248;2022-08-03T03:34:09;100766.97;;;18.58;93.98
51359;BME280;37448;51.588;7.248;2022-08-03T03:36:40;100759.41;;;18.55;94.54
51359;BME280;37448;51.588;7.248;2022-08-03T03:39:10;100765.41;;;18.54;94.75
51359;BME280;37448;51.588;7.248;2022-08-03T03:41:41;100766.56;;;18.56;92.89
51359;BME280;37448;51.588;7.248;2022-08-03T03:44:12;100768.97;;;18.54;93.80
51359;BME280;37448;51.588;7.248;2022-08-03T03:46:42;100762.69;;;18.47;95.03
51359;BME280;37448;51.588;7.248;2022-08-03T03:49:13;100763.09;;;18.45;95.47
51359;BME280;37448;51.588;7.248;2022-08-03T03:51:43;100759.84;;;18.50;94.77
51359;BME280;37448;51.588;7.248;2022-08-03T03:54:14;100757.09;;;18.47;95.58
51359;BME280;37448;51.588;7.248;2022-08-03T03:56:44;100753.53;;;18.46;94.88
51359;BME280;37448;51.588;7.248;2022-08-03T03:59:15;100753.19;;;18.44;95.96
51359;BME280;37448;51.588;7.248;2022-08-03T04:01:45;100760.38;;;18.38;97.03
51359;BME280;37448;51.588;7.248;2022-08-03T04:04:16;100754.00;;;18.41;95.60
51359;BME280;37448;51.588;7.248;2022-08-03T04:07:05;100759.56;;;18.41;96.36
51359;BME280;37448;51.588;7.248;2022-08-03T04:09:54;100766.69;;;18.42;97.17
51359;BME280;37448;51.588;7.248;2022-08-03T04:12:45;100759.19;;;18.39;96.74
51359;BME280;37448;51.588;7.248;2022-08-03T04:15:18;100762.38;;;18.41;95.82
51359;BME280;37448;51.588;7.248;2022-08-03T04:17:51;100765.50;;;18.43;96.23
51359;BME280;37448;51.588;7.248;2022-08-03T04:20:29;100764.66;;;18.46;95.37
51359;BME280;37448;51.588;7.248;2022-08-03T04:23:02;100757.91;;;18.47;95.63
51359;BME280;37448;51.588;7.248;2022-08-03T04:25:33;100759.47;;;18.48;96.91
51359;BME280;37448;51.588;7.248;2022-08-03T04:28:06;100761.44;;;18.51;95.88
51359;BME280;37448;51.588;7.248;2022-08-03T04:30:38;100763.47;;;18.47;95.94
51359;BME280;37448;51.588;7.248;2022-08-03T04:33:09;100764.22;;;18.51;95.54
51359;BME280;37448;51.588;7.248;2022-08-03T04:35:40;100761.41;;;18.55;95.68
51359;BME280;37448;51.588;7.248;2022-08-03T04:38:14;100757.06;;;18.50;96.39
51359;BME280;37448;51.588;7.248;2022-08-03T04:40:47;100762.22;;;18.52;94.78
51359;BME280;37448;51.588;7.248;2022-08-03T04:43:19;100764.63;;;18.53;94.79
51359;BME280;37448;51.588;7.248;2022-08-03T04:45:52;100766.13;;;18.61;94.91
51359;BME280;37448;51.588;7.248;2022-08-03T04:48:23;100772.88;;;18.60;95.95
51359;BME280;37448;51.588;7.248;2022-08-03T04:50:54;100768.06;;;18.64;96.40
51359;BME280;37448;51.588;7.248;2022-08-03T04:53:25;100769.56;;;18.73;95.37
51359;BME280;37448;51.588;7.248;2022-08-03T04:56:03;100765.91;;;18.79;95.33
51359;BME280;37448;51.588;7.248;2022-08-03T04:58:33;100776.53;;;18.88;94.41
51359;BME280;37448;51.588;7.248;2022-08-03T05:01:04;100772.84;;;18.94;94.26
51359;BME280;37448;51.588;7.248;2022-08-03T05:03:34;100782.75;;;18.99;94.71
51359;BME280;37448;51.588;7.248;2022-08-03T05:06:04;100777.91;;;19.03;94.33
51359;BME280;37448;51.588;7.248;2022-08-03T05:08:35;100785.00;;;19.07;94.98
51359;BME280;37448;51.588;7.248;2022-08-03T05:11:05;100785.69;;;19.15;94.04
51359;BME280;37448;51.588;7.248;2022-08-03T05:13:36;100769.31;;;19.21;93.08
51359;BME280;37448;51.588;7.248;2022-08-03T05:16:06;100782.31;;;19.27;92.93
51359;BME280;37448;51.588;7.248;2022-08-03T05:18:37;100782.31;;;19.31;92.17
51359;BME280;37448;51.588;7.248;2022-08-03T05:21:10;100781.41;;;19.37;92.27
51359;BME280;37448;51.588;7.248;2022-08-03T05:23:43;100779.75;;;19.43;91.88
51359;BME280;37448;51.588;7.248;2022-08-03T05:26:13;100775.72;;;19.44;92.04
51359;BME280;37448;51.588;7.248;2022-08-03T05:28:44;100778.44;;;19.51;91.82
51359;BME280;37448;51.588;7.248;2022-08-03T05:31:14;100780.31;;;19.58;91.40
51359;BME280;37448;51.588;7.248;2022-08-03T05:33:44;100778.19;;;19.66;91.77
51359;BME280;37448;51.588;7.248;2022-08-03T05:36:16;100778.44;;;19.75;91.17
51359;BME280;37448;51.588;7.248;2022-08-03T05:38:47;100783.06;;;19.85;90.80
51359;BME280;37448;51.588;7.248;2022-08-03T05:41:17;100776.94;;;19.93;90.38
51359;BME280;37448;51.588;7.248;2022-08-03T05:43:47;100775.53;;;20.05;90.32
51359;BME280;37448;51.588;7.248;2022-08-03T05:46:18;100786.06;;;20.17;89.83
51359;BME280;37448;51.588;7.248;2022-08-03T05:48:49;100783.09;;;20.28;89.62
51359;BME280;37448;51.588;7.248;2022-08-03T05:51:20;100790.06;;;20.39;89.26
51359;BME280;37448;51.588;7.248;2022-08-03T05:53:50;100791.00;;;20.72;88.55
51359;BME280;37448;51.588;7.248;2022-08-03T05:56:22;100796.97;;;22.11;83.22
51359;BME280;37448;51.588;7.248;2022-08-03T05:58:54;100797.84;;;23.61;76.60
51359;BME280;37448;51.588;7.248;2022-08-03T06:01:24;100804.38;;;24.74;71.64
51359;BME280;37448;51.588;7.248;2022-08-03T06:03:54;100804.53;;;25.54;69.76
51359;BME280;37448;51.588;7.248;2022-08-03T06:06:25;100814.41;;;26.53;62.35
51359;BME280;37448;51.588;7.248;2022-08-03T06:08:55;100811.22;;;27.14;62.57
51359;BME280;37448;51.588;7.248;2022-08-03T06:11:25;100818.09;;;27.64;54.59
51359;BME280;37448;51.588;7.248;2022-08-03T06:13:56;100818.69;;;28.25;59.08
51359;BME280;37448;51.588;7.248;2022-08-03T06:16:26;100819.41;;;28.11;57.34
51359;BME280;37448;51.588;7.248;2022-08-03T06:18:57;100822.69;;;27.62;54.47
51359;BME280;37448;51.588;7.248;2022-08-03T06:21:27;100816.53;;;28.20;55.00
51359;BME280;37448;51.588;7.248;2022-08-03T06:23:57;100821.72;;;28.60;52.83
51359;BME280;37448;51.588;7.248;2022-08-03T06:26:28;100816.50;;;28.97;50.49
51359;BME280;37448;51.588;7.248;2022-08-03T06:28:58;100814.91;;;29.55;49.69
51359;BME280;37448;51.588;7.248;2022-08-03T06:31:28;100817.63;;;29.64;47.90
51359;BME280;37448;51.588;7.248;2022-08-03T06:34:00;100820.75;;;29.66;48.52
51359;BME280;37448;51.588;7.248;2022-08-03T06:36:31;100820.59;;;29.89;48.90
51359;BME280;37448;51.588;7.248;2022-08-03T06:39:02;100823.78;;;29.97;46.47
51359;BME280;37448;51.588;7.248;2022-08-03T06:41:32;100825.22;;;30.48;48.06
51359;BME280;37448;51.588;7.248;2022-08-03T06:44:03;100817.94;;;29.86;46.77
51359;BME280;37448;51.588;7.248;2022-08-03T06:46:33;100817.50;;;30.08;44.97
51359;BME280;37448;51.588;7.248;2022-08-03T06:49:05;100821.81;;;30.64;45.27
51359;BME280;37448;51.588;7.248;2022-08-03T06:51:36;100821.75;;;30.84;46.55
51359;BME280;37448;51.588;7.248;2022-08-03T06:54:06;100831.72;;;31.25;44.76
51359;BME280;37448;51.588;7.248;2022-08-03T06:56:37;100828.09;;;30.99;45.33
51359;BME280;37448;51.588;7.248;2022-08-03T06:59:07;100835.63;;;31.59;44.42
51359;BME280;37448;51.588;7.248;2022-08-03T07:01:38;100838.03;;;31.72;41.27
51359;BME280;37448;51.588;7.248;2022-08-03T07:04:08;100831.25;;;31.64;42.79
51359;BME280;37448;51.588;7.248;2022-08-03T07:06:38;100831.59;;;31.46;41.42
51359;BME280;37448;51.588;7.248;2022-08-03T07:09:09;100826.25;;;31.90;42.19
51359;BME280;37448;51.588;7.248;2022-08-03T07:11:39;100833.97;;;31.84;43.55
51359;BME280;37448;51.588;7.248;2022-08-03T07:14:09;100836.19;;;31.69;43.41
51359;BME280;37448;51.588;7.248;2022-08-03T07:16:40;100832.63;;;31.80;42.13
51359;BME280;37448;51.588;7.248;2022-08-03T07:19:10;100841.56;;;31.30;41.24
51359;BME280;37448;51.588;7.248;2022-08-03T07:21:41;100842.06;;;31.28;42.97
51359;BME280;37448;51.588;7.248;2022-08-03T07:24:11;100844.09;;;31.28;43.30
51359;BME280;37448;51.588;7.248;2022-08-03T07:26:42;100840.97;;;31.52;41.88
51359;BME280;37448;51.588;7.248;2022-08-03T07:29:12;100840.25;;;31.00;42.58
51359;BME280;37448;51.588;7.248;2022-08-03T07:31:43;100841.66;;;30.90;43.75
51359;BME280;37448;51.588;7.248;2022-08-03T07:34:13;100845.75;;;30.22;44.75
51359;BME280;37448;51.588;7.248;2022-08-03T07:36:44;100845.69;;;29.82;47.53
51359;BME280;37448;51.588;7.248;2022-08-03T07:39:14;100846.06;;;30.45;45.96
51359;BME280;37448;51.588;7.248;2022-08-03T07:41:45;100851.78;;;30.30;46.89
51359;BME280;37448;51.588;7.248;2022-08-03T07:44:15;100843.88;;;30.54;46.64
51359;BME280;37448;51.588;7.248;2022-08-03T07:46:46;100848.97;;;31.53;43.61
51359;BME280;37448;51.588;7.248;2022-08-03T07:49:16;100847.78;;;32.02;43.15
51359;BME280;37448;51.588;7.248;2022-08-03T07:51:47;100839.97;;;31.55;43.22
51359;BME280;37448;51.588;7.248;2022-08-03T07:54:37;100852.50;;;31.74;41.67
51359;BME280;37448;51.588;7.248;2022-08-03T07:57:07;100846.78;;;31.68;42.04
51359;BME280;37448;51.588;7.248;2022-08-03T07:59:37;100848.44;;;32.29;40.20
51359;BME280;37448;51.588;7.248;2022-08-03T08:02:08;100852.44;;;32.59;39.48
51359;BME280;37448;51.588;7.248;2022-08-03T08:04:39;100854.44;;;32.42;40.34
51359;BME280;37448;51.588;7.248;2022-08-03T08:07:09;100858.72;;;32.74;37.27
51359;BME280;37448;51.588;7.248;2022-08-03T08:09:40;100854.31;;;32.79;38.67
51359;BME280;37448;51.588;7.248;2022-08-03T08:12:10;100847.94;;;33.23;36.94
51359;BME280;37448;51.588;7.248;2022-08-03T08:14:41;100852.59;;;33.26;37.17
51359;BME280;37448;51.588;7.248;2022-08-03T08:17:14;100859.31;;;33.62;35.41
51359;BME280;37448;51.588;7.248;2022-08-03T08:19:45;100849.47;;;33.79;35.22
51359;BME280;37448;51.588;7.248;2022-08-03T08:22:15;100847.16;;;33.56;35.41
51359;BME280;37448;51.588;7.248;2022-08-03T08:24:45;100850.47;;;33.99;34.38
51359;BME280;37448;51.588;7.248;2022-08-03T08:27:18;100854.09;;;34.16;34.29
51359;BME280;37448;51.588;7.248;2022-08-03T08:29:48;100850.44;;;34.10;33.92
51359;BME280;37448;51.588;7.248;2022-08-03T08:32:18;100851.31;;;33.38;35.57
51359;BME280;37448;51.588;7.248;2022-08-03T08:34:49;100844.03;;;33.53;35.92
51359;BME280;37448;51.588;7.248;2022-08-03T08:37:19;100841.53;;;34.41;33.99
51359;BME280;37448;51.588;7.248;2022-08-03T08:39:49;100843.19;;;34.03;36.09
51359;BME280;37448;51.588;7.248;2022-08-03T08:42:19;100840.91;;;33.74;34.69
51359;BME280;37448;51.588;7.248;2022-08-03T08:44:50;100841.09;;;34.04;34.47
51359;BME280;37448;51.588;7.248;2022-08-03T08:47:24;100846.88;;;33.81;34.86
51359;BME280;37448;51.588;7.248;2022-08-03T08:49:57;100842.72;;;33.88;35.97
51359;BME280;37448;51.588;7.248;2022-08-03T08:52:29;100845.53;;;34.16;35.73
51359;BME280;37448;51.588;7.248;2022-08-03T08:55:03;100850.28;;;34.54;33.81
51359;BME280;37448;51.588;7.248;2022-08-03T08:57:38;100844.22;;;34.06;34.78
51359;BME280;37448;51.588;7.248;2022-08-03T09:00:11;100853.56;;;35.16;32.46
51359;BME280;37448;51.588;7.248;2022-08-03T09:02:45;100850.41;;;35.14;33.84
51359;BME280;37448;51.588;7.248;2022-08-03T09:05:17;100846.69;;;35.30;32.31
51359;BME280;37448;51.588;7.248;2022-08-03T09:07:48;100847.44;;;35.01;32.53
51359;BME280;37448;51.588;7.248;2022-08-03T09:10:18;100848.66;;;35.05;33.39
51359;BME280;37448;51.588;7.248;2022-08-03T09:12:51;100839.53;;;34.14;33.89
51359;BME280;37448;51.588;7.248;2022-08-03T09:17:59;100842.44;;;34.60;32.76
51359;BME280;37448;51.588;7.248;2022-08-03T09:20:31;100852.19;;;34.35;33.65
51359;BME280;37448;51.588;7.248;2022-08-03T09:23:05;100850.09;;;34.41;32.63
51359;BME280;37448;51.588;7.248;2022-08-03T09:25:39;100845.28;;;33.91;34.03
51359;BME280;37448;51.588;7.248;2022-08-03T09:28:14;100840.16;;;33.73;34.24
51359;BME280;37448;51.588;7.248;2022-08-03T09:30:57;100844.81;;;33.54;34.84
51359;BME280;37448;51.588;7.248;2022-08-03T09:33:28;100836.81;;;33.69;34.46
51359;BME280;37448;51.588;7.248;2022-08-03T09:35:59;100841.09;;;34.04;34.05
51359;BME280;37448;51.588;7.248;2022-08-03T09:38:29;100850.31;;;34.43;33.73
51359;BME280;37448;51.588;7.248;2022-08-03T09:40:59;100858.09;;;34.48;33.79
51359;BME280;37448;51.588;7.248;2022-08-03T09:43:44;100852.56;;;34.67;31.85
51359;BME280;37448;51.588;7.248;2022-08-03T09:46:15;100847.53;;;34.84;32.74
51359;BME280;37448;51.588;7.248;2022-08-03T09:48:47;100850.72;;;35.16;31.08
51359;BME280;37448;51.588;7.248;2022-08-03T09:51:23;100847.25;;;34.30;32.61
51359;BME280;37448;51.588;7.248;2022-08-03T09:53:53;100847.72;;;34.45;33.21
51359;BME280;37448;51.588;7.248;2022-08-03T09:56:57;100843.63;;;34.29;32.24
51359;BME280;37448;51.588;7.248;2022-08-03T09:59:29;100837.66;;;34.85;32.03
51359;BME280;37448;51.588;7.248;2022-08-03T10:02:00;100835.69;;;34.63;32.07
51359;BME280;37448;51.588;7.248;2022-08-03T10:04:30;100847.94;;;34.99;31.99
51359;BME280;37448;51.588;7.248;2022-08-03T10:07:02;100843.91;;;34.83;32.39
51359;BME280;37448;51.588;7.248;2022-08-03T10:09:33;100843.19;;;34.72;32.80
51359;BME280;37448;51.588;7.248;2022-08-03T10:14:40;100839.00;;;34.78;32.83
51359;BME280;37448;51.588;7.248;2022-08-03T10:17:14;100830.81;;;34.58;31.82
51359;BME280;37448;51.588;7.248;2022-08-03T10:19:45;100836.94;;;34.79;31.81
51359;BME280;37448;51.588;7.248;2022-08-03T10:22:25;100830.09;;;35.28;30.89
51359;BME280;37448;51.588;7.248;2022-08-03T10:25:03;100836.22;;;35.92;30.34
51359;BME280;37448;51.588;7.248;2022-08-03T10:27:37;100834.47;;;36.08;29.55
51359;BME280;37448;51.588;7.248;2022-08-03T10:30:10;100843.34;;;35.26;29.97
51359;BME280;37448;51.588;7.248;2022-08-03T10:32:42;100831.53;;;34.64;31.48
51359;BME280;37448;51.588;7.248;2022-08-03T10:35:15;100823.25;;;34.66;32.24
51359;BME280;37448;51.588;7.248;2022-08-03T10:38:09;100830.72;;;34.75;31.60
51359;BME280;37448;51.588;7.248;2022-08-03T10:40:42;100822.50;;;35.31;30.35
51359;BME280;37448;51.588;7.248;2022-08-03T10:43:18;100821.06;;;35.19;31.00
51359;BME280;37448;51.588;7.248;2022-08-03T10:45:50;100817.25;;;35.41;29.94
51359;BME280;37448;51.588;7.248;2022-08-03T10:48:21;100817.88;;;34.93;30.88
51359;BME280;37448;51.588;7.248;2022-08-03T10:50:51;100810.75;;;35.94;28.17
51359;BME280;37448;51.588;7.248;2022-08-03T10:53:36;100809.22;;;35.39;29.38
51359;BME280;37448;51.588;7.248;2022-08-03T11:02:17;100803.59;;;35.52;28.95
51359;BME280;37448;51.588;7.248;2022-08-03T11:05:27;100807.66;;;35.38;29.54
51359;BME280;37448;51.588;7.248;2022-08-03T11:10:56;100794.19;;;34.98;29.75
51359;BME280;37448;51.588;7.248;2022-08-03T11:13:28;100784.06;;;34.67;30.63
51359;BME280;37448;51.588;7.248;2022-08-03T11:16:03;100795.47;;;34.04;30.62
51359;BME280;37448;51.588;7.248;2022-08-03T11:19:02;100792.28;;;34.76;29.95
51359;BME280;37448;51.588;7.248;2022-08-03T11:35:25;100790.75;;;34.75;31.32
51359;BME280;37448;51.588;7.248;2022-08-03T11:40:52;100780.66;;;35.39;29.77
51359;BME280;37448;51.588;7.248;2022-08-03T11:48:34;100781.94;;;35.38;30.80
51359;BME280;37448;51.588;7.248;2022-08-03T11:51:24;100782.25;;;35.35;29.68
51359;BME280;37448;51.588;7.248;2022-08-03T11:54:04;100782.63;;;35.74;30.04
51359;BME280;37448;51.588;7.248;2022-08-03T11:56:46;100784.31;;;35.64;28.77
51359;BME280;37448;51.588;7.248;2022-08-03T11:59:16;100782.97;;;36.70;27.91
51359;BME280;37448;51.588;7.248;2022-08-03T12:01:47;100785.34;;;36.47;28.44
51359;BME280;37448;51.588;7.248;2022-08-03T12:04:17;100781.00;;;36.03;29.67
51359;BME280;37448;51.588;7.248;2022-08-03T12:06:58;100781.97;;;36.99;27.07
51359;BME280;37448;51.588;7.248;2022-08-03T12:09:29;100773.63;;;36.32;29.28
51359;BME280;37448;51.588;7.248;2022-08-03T12:11:59;100785.50;;;36.92;27.21
51359;BME280;37448;51.588;7.248;2022-08-03T12:14:30;100778.47;;;36.74;26.85
51359;BME280;37448;51.588;7.248;2022-08-03T12:17:00;100776.94;;;35.93;28.59
51359;BME280;37448;51.588;7.248;2022-08-03T12:19:41;100772.38;;;36.65;27.55
51359;BME280;37448;51.588;7.248;2022-08-03T12:22:12;100772.38;;;36.27;28.75
51359;BME280;37448;51.588;7.248;2022-08-03T12:24:43;100758.91;;;35.55;30.17
51359;BME280;37448;51.588;7.248;2022-08-03T12:27:24;100771.06;;;36.04;29.54
51359;BME280;37448;51.588;7.248;2022-08-03T12:29:56;100770.50;;;36.48;27.70
51359;BME280;37448;51.588;7.248;2022-08-03T12:32:28;100766.50;;;37.08;26.56
51359;BME280;37448;51.588;7.248;2022-08-03T12:34:58;100763.47;;;36.49;27.03
51359;BME280;37448;51.588;7.248;2022-08-03T12:37:30;100761.44;;;36.07;27.42
51359;BME280;37448;51.588;7.248;2022-08-03T12:40:02;100766.97;;;35.81;27.54
51359;BME280;37448;51.588;7.248;2022-08-03T12:42:37;100763.72;;;36.14;27.28
51359;BME280;37448;51.588;7.248;2022-08-03T12:45:28;100753.66;;;35.35;29.56
51359;BME280;37448;51.588;7.248;2022-08-03T12:48:01;100759.53;;;36.15;27.29
51359;BME280;37448;51.588;7.248;2022-08-03T12:50:34;100750.84;;;35.53;28.80
51359;BME280;37448;51.588;7.248;2022-08-03T12:53:07;100755.28;;;35.54;28.49
51359;BME280;37448;51.588;7.248;2022-08-03T12:55:38;100755.06;;;35.77;28.11
51359;BME280;37448;51.588;7.248;2022-08-03T12:58:27;100749.78;;;35.02;30.99
51359;BME280;37448;51.588;7.248;2022-08-03T13:00:58;100747.69;;;35.03;30.33
51359;BME280;37448;51.588;7.248;2022-08-03T13:03:38;100750.03;;;35.34;29.54
51359;BME280;37448;51.588;7.248;2022-08-03T13:06:13;100744.19;;;35.45;30.32
51359;BME280;37448;51.588;7.248;2022-08-03T13:08:44;100743.59;;;36.20;28.37
51359;BME280;37448;51.588;7.248;2022-08-03T13:11:18;100748.19;;;35.85;29.81
51359;BME280;37448;51.588;7.248;2022-08-03T13:13:50;100740.06;;;36.32;28.06
51359;BME280;37448;51.588;7.248;2022-08-03T13:16:21;100742.13;;;35.70;28.55
51359;BME280;37448;51.588;7.248;2022-08-03T13:18:52;100739.75;;;35.93;28.39
51359;BME280;37448;51.588;7.248;2022-08-03T13:21:23;100736.28;;;36.56;26.01
51359;BME280;37448;51.588;7.248;2022-08-03T13:23:54;100749.22;;;36.25;27.82
51359;BME280;37448;51.588;7.248;2022-08-03T13:26:25;100747.72;;;36.00;29.32
51359;BME280;37448;51.588;7.248;2022-08-03T13:28:55;100740.97;;;35.54;30.10
51359;BME280;37448;51.588;7.248;2022-08-03T13:31:25;100738.47;;;36.69;27.99
51359;BME280;37448;51.588;7.248;2022-08-03T13:33:56;100740.94;;;36.03;29.55
51359;BME280;37448;51.588;7.248;2022-08-03T13:36:26;100744.34;;;36.20;29.09
51359;BME280;37448;51.588;7.248;2022-08-03T13:38:56;100742.34;;;35.48;29.26
51359;BME280;37448;51.588;7.248;2022-08-03T13:41:27;100741.34;;;35.69;28.43
51359;BME280;37448;51.588;7.248;2022-08-03T13:43:57;100737.88;;;36.20;28.07
51359;BME280;37448;51.588;7.248;2022-08-03T13:46:29;100732.31;;;36.27;28.67
51359;BME280;37448;51.588;7.248;2022-08-03T13:49:00;100729.63;;;35.92;28.76
51359;BME280;37448;51.588;7.248;2022-08-03T13:51:30;100727.66;;;35.38;29.52
51359;BME280;37448;51.588;7.248;2022-08-03T13:54:01;100726.22;;;35.26;28.76
51359;BME280;37448;51.588;7.248;2022-08-03T13:56:31;100730.19;;;35.17;28.65
51359;BME280;37448;51.588;7.248;2022-08-03T13:59:02;100714.97;;;34.74;28.96
51359;BME280;37448;51.588;7.248;2022-08-03T14:01:32;100716.25;;;34.78;29.91
51359;BME280;37448;51.588;7.248;2022-08-03T14:04:02;100726.28;;;34.85;29.92